sensor_id;sensor_type;location;lat;lon;timestamp;P1;durP1;ratioP1;P2;durP2;ratioP2
37655;SDS011;23498;50.958;3.124;2022-11-20T00:01:32;44.70;;;21.23;;
37655;SDS011;23498;50.958;3.124;2022-11-20T00:03:58;46.95;;;21.30;;
37655;SDS011;23498;50.958;3.124;2022-11-20T00:06:25;46.92;;;21.73;;
37655;SDS011;23498;50.958;3.124;2022-11-20T00:08:52;49.33;;;22.08;;
37655;SDS011;23498;50.958;3.124;2022-11-20T00:11:19;47.08;;;22.02;;
37655;SDS011;23498;50.958;3.124;2022-11-20T00:13:47;51.03;;;23.27;;
37655;SDS011;23498;50.958;3.124;2022-11-20T00:16:14;50.17;;;23.08;;
37655;SDS011;23498;50.958;3.124;2022-11-20T00:18:40;47.50;;;22.58;;
37655;SDS011;23498;50.958;3.124;2022-11-20T00:21:11;47.70;;;21.77;;
37655;SDS011;23498;50.958;3.124;2022-11-20T00:23:38;44.97;;;21.30;;
37655;SDS011;23498;50.958;3.124;2022-11-20T00:26:08;45.38;;;21.58;;
37655;SDS011;23498;50.958;3.124;2022-11-20T00:28:34;46.30;;;21.85;;
37655;SDS011;23498;50.958;3.124;2022-11-20T00:31:04;49.70;;;22.40;;
37655;SDS011;23498;50.958;3.124;2022-11-20T00:33:30;47.22;;;22.42;;
37655;SDS011;23498;50.958;3.124;2022-11-20T00:36:16;46.22;;;22.00;;
37655;SDS011;23498;50.958;3.124;2022-11-20T00:38:42;44.45;;;20.42;;
37655;SDS011;23498;50.958;3.124;2022-11-20T00:41:10;50.78;;;22.85;;
37655;SDS011;23498;50.958;3.124;2022-11-20T00:43:36;49.30;;;23.38;;
37655;SDS011;23498;50.958;3.124;2022-11-20T00:46:03;51.72;;;23.25;;
37655;SDS011;23498;50.958;3.124;2022-11-20T00:48:30;50.42;;;23.65;;
37655;SDS011;23498;50.958;3.124;2022-11-20T00:50:56;48.75;;;22.85;;
37655;SDS011;23498;50.958;3.124;2022-11-20T00:53:22;49.25;;;21.10;;
37655;SDS011;23498;50.958;3.124;2022-11-20T00:58:21;46.35;;;21.75;;
37655;SDS011;23498;50.958;3.124;2022-11-20T01:00:47;48.47;;;22.95;;
37655;SDS011;23498;50.958;3.124;2022-11-20T01:03:14;51.10;;;22.98;;
37655;SDS011;23498;50.958;3.124;2022-11-20T01:05:41;56.67;;;24.90;;
37655;SDS011;23498;50.958;3.124;2022-11-20T01:08:07;53.15;;;24.02;;
37655;SDS011;23498;50.958;3.124;2022-11-20T01:10:33;53.70;;;24.45;;
37655;SDS011;23498;50.958;3.124;2022-11-20T01:12:58;48.67;;;22.83;;
37655;SDS011;23498;50.958;3.124;2022-11-20T01:15:43;53.35;;;24.13;;
37655;SDS011;23498;50.958;3.124;2022-11-20T01:18:09;57.10;;;24.38;;
37655;SDS011;23498;50.958;3.124;2022-11-20T01:20:35;61.08;;;25.75;;
37655;SDS011;23498;50.958;3.124;2022-11-20T01:23:02;69.05;;;26.25;;
37655;SDS011;23498;50.958;3.124;2022-11-20T01:25:28;66.38;;;27.13;;
37655;SDS011;23498;50.958;3.124;2022-11-20T01:27:54;76.13;;;28.08;;
37655;SDS011;23498;50.958;3.124;2022-11-20T01:30:20;77.57;;;28.75;;
37655;SDS011;23498;50.958;3.124;2022-11-20T01:32:46;75.00;;;27.17;;
37655;SDS011;23498;50.958;3.124;2022-11-20T01:35:12;63.90;;;26.23;;
37655;SDS011;23498;50.958;3.124;2022-11-20T01:37:38;67.68;;;26.77;;
37655;SDS011;23498;50.958;3.124;2022-11-20T01:40:04;75.65;;;28.50;;
37655;SDS011;23498;50.958;3.124;2022-11-20T01:42:31;72.50;;;27.63;;
37655;SDS011;23498;50.958;3.124;2022-11-20T01:48:00;72.57;;;26.95;;
37655;SDS011;23498;50.958;3.124;2022-11-20T01:50:26;69.88;;;28.65;;
37655;SDS011;23498;50.958;3.124;2022-11-20T01:55:21;80.25;;;28.70;;
37655;SDS011;23498;50.958;3.124;2022-11-20T01:57:47;79.93;;;28.95;;
37655;SDS011;23498;50.958;3.124;2022-11-20T02:00:15;78.65;;;29.65;;
37655;SDS011;23498;50.958;3.124;2022-11-20T02:02:42;74.78;;;28.73;;
37655;SDS011;23498;50.958;3.124;2022-11-20T02:05:31;77.63;;;29.85;;
37655;SDS011;23498;50.958;3.124;2022-11-20T02:07:58;74.88;;;28.13;;
37655;SDS011;23498;50.958;3.124;2022-11-20T02:10:24;73.03;;;29.42;;
37655;SDS011;23498;50.958;3.124;2022-11-20T02:12:51;76.13;;;29.77;;
37655;SDS011;23498;50.958;3.124;2022-11-20T02:15:35;70.68;;;28.60;;
37655;SDS011;23498;50.958;3.124;2022-11-20T02:18:01;68.68;;;28.02;;
37655;SDS011;23498;50.958;3.124;2022-11-20T02:20:28;70.72;;;28.95;;
37655;SDS011;23498;50.958;3.124;2022-11-20T02:22:58;73.90;;;28.83;;
37655;SDS011;23498;50.958;3.124;2022-11-20T02:25:25;75.10;;;30.75;;
37655;SDS011;23498;50.958;3.124;2022-11-20T02:27:52;71.28;;;30.10;;
37655;SDS011;23498;50.958;3.124;2022-11-20T02:30:18;83.60;;;30.88;;
37655;SDS011;23498;50.958;3.124;2022-11-20T02:32:44;81.80;;;30.83;;
37655;SDS011;23498;50.958;3.124;2022-11-20T02:37:49;78.18;;;31.83;;
37655;SDS011;23498;50.958;3.124;2022-11-20T02:40:16;86.67;;;31.43;;
37655;SDS011;23498;50.958;3.124;2022-11-20T02:42:42;91.07;;;34.30;;
37655;SDS011;23498;50.958;3.124;2022-11-20T02:45:08;87.45;;;32.40;;
37655;SDS011;23498;50.958;3.124;2022-11-20T02:47:34;89.43;;;32.88;;
37655;SDS011;23498;50.958;3.124;2022-11-20T02:50:00;90.53;;;34.20;;
37655;SDS011;23498;50.958;3.124;2022-11-20T02:52:26;88.72;;;32.05;;
37655;SDS011;23498;50.958;3.124;2022-11-20T02:54:52;87.13;;;31.80;;
37655;SDS011;23498;50.958;3.124;2022-11-20T02:57:18;89.80;;;32.40;;
37655;SDS011;23498;50.958;3.124;2022-11-20T02:59:44;93.05;;;32.63;;
37655;SDS011;23498;50.958;3.124;2022-11-20T03:02:10;89.60;;;32.38;;
37655;SDS011;23498;50.958;3.124;2022-11-20T03:04:36;95.32;;;34.03;;
37655;SDS011;23498;50.958;3.124;2022-11-20T03:07:02;90.53;;;34.75;;
37655;SDS011;23498;50.958;3.124;2022-11-20T03:09:29;85.43;;;32.13;;
37655;SDS011;23498;50.958;3.124;2022-11-20T03:11:55;89.35;;;33.33;;
37655;SDS011;23498;50.958;3.124;2022-11-20T03:14:21;86.30;;;32.33;;
37655;SDS011;23498;50.958;3.124;2022-11-20T03:16:47;89.88;;;33.22;;
37655;SDS011;23498;50.958;3.124;2022-11-20T03:19:13;91.03;;;32.60;;
37655;SDS011;23498;50.958;3.124;2022-11-20T03:21:39;89.28;;;34.03;;
37655;SDS011;23498;50.958;3.124;2022-11-20T03:24:05;90.38;;;32.97;;
37655;SDS011;23498;50.958;3.124;2022-11-20T03:26:31;86.70;;;31.92;;
37655;SDS011;23498;50.958;3.124;2022-11-20T03:28:58;91.38;;;33.85;;
37655;SDS011;23498;50.958;3.124;2022-11-20T03:31:25;85.88;;;31.63;;
37655;SDS011;23498;50.958;3.124;2022-11-20T03:33:51;82.35;;;30.95;;
37655;SDS011;23498;50.958;3.124;2022-11-20T03:36:19;81.13;;;29.75;;
37655;SDS011;23498;50.958;3.124;2022-11-20T03:38:45;84.30;;;29.85;;
37655;SDS011;23498;50.958;3.124;2022-11-20T03:41:18;73.80;;;29.15;;
37655;SDS011;23498;50.958;3.124;2022-11-20T03:43:54;80.90;;;30.63;;
37655;SDS011;23498;50.958;3.124;2022-11-20T03:46:22;76.63;;;28.98;;
37655;SDS011;23498;50.958;3.124;2022-11-20T03:48:49;82.55;;;30.45;;
37655;SDS011;23498;50.958;3.124;2022-11-20T03:51:16;70.35;;;29.38;;
37655;SDS011;23498;50.958;3.124;2022-11-20T03:53:43;73.63;;;30.00;;
37655;SDS011;23498;50.958;3.124;2022-11-20T03:56:09;77.47;;;30.45;;
37655;SDS011;23498;50.958;3.124;2022-11-20T03:58:36;77.47;;;30.10;;
37655;SDS011;23498;50.958;3.124;2022-11-20T04:01:14;77.63;;;31.63;;
37655;SDS011;23498;50.958;3.124;2022-11-20T04:03:41;81.18;;;31.73;;
37655;SDS011;23498;50.958;3.124;2022-11-20T04:06:15;78.65;;;29.25;;
37655;SDS011;23498;50.958;3.124;2022-11-20T04:08:41;74.05;;;28.38;;
37655;SDS011;23498;50.958;3.124;2022-11-20T04:11:08;75.38;;;30.17;;
37655;SDS011;23498;50.958;3.124;2022-11-20T04:13:34;81.15;;;29.67;;
37655;SDS011;23498;50.958;3.124;2022-11-20T04:16:00;72.07;;;28.40;;
37655;SDS011;23498;50.958;3.124;2022-11-20T04:18:26;79.35;;;30.08;;
37655;SDS011;23498;50.958;3.124;2022-11-20T04:20:52;77.32;;;30.23;;
37655;SDS011;23498;50.958;3.124;2022-11-20T04:23:18;79.80;;;29.40;;
37655;SDS011;23498;50.958;3.124;2022-11-20T04:25:44;72.85;;;28.30;;
37655;SDS011;23498;50.958;3.124;2022-11-20T04:28:10;80.38;;;30.98;;
37655;SDS011;23498;50.958;3.124;2022-11-20T04:30:36;77.32;;;30.00;;
37655;SDS011;23498;50.958;3.124;2022-11-20T04:33:02;74.93;;;28.73;;
37655;SDS011;23498;50.958;3.124;2022-11-20T04:35:28;71.20;;;26.92;;
37655;SDS011;23498;50.958;3.124;2022-11-20T04:37:54;78.97;;;30.77;;
37655;SDS011;23498;50.958;3.124;2022-11-20T04:40:20;73.68;;;28.08;;
37655;SDS011;23498;50.958;3.124;2022-11-20T04:42:46;81.13;;;28.55;;
37655;SDS011;23498;50.958;3.124;2022-11-20T04:45:12;75.53;;;27.98;;
37655;SDS011;23498;50.958;3.124;2022-11-20T04:47:38;68.72;;;26.73;;
37655;SDS011;23498;50.958;3.124;2022-11-20T04:50:04;73.43;;;28.17;;
37655;SDS011;23498;50.958;3.124;2022-11-20T04:52:30;70.93;;;27.90;;
37655;SDS011;23498;50.958;3.124;2022-11-20T04:54:56;77.75;;;28.52;;
37655;SDS011;23498;50.958;3.124;2022-11-20T04:57:22;70.93;;;27.27;;
37655;SDS011;23498;50.958;3.124;2022-11-20T04:59:48;76.32;;;26.85;;
37655;SDS011;23498;50.958;3.124;2022-11-20T05:02:13;64.95;;;27.17;;
37655;SDS011;23498;50.958;3.124;2022-11-20T05:04:39;74.30;;;25.55;;
37655;SDS011;23498;50.958;3.124;2022-11-20T05:07:06;69.70;;;26.35;;
37655;SDS011;23498;50.958;3.124;2022-11-20T05:09:32;64.95;;;26.02;;
37655;SDS011;23498;50.958;3.124;2022-11-20T05:11:58;71.47;;;25.92;;
37655;SDS011;23498;50.958;3.124;2022-11-20T05:14:24;64.32;;;26.17;;
37655;SDS011;23498;50.958;3.124;2022-11-20T05:16:50;66.07;;;27.17;;
37655;SDS011;23498;50.958;3.124;2022-11-20T05:19:16;60.92;;;25.45;;
37655;SDS011;23498;50.958;3.124;2022-11-20T05:21:42;75.18;;;26.50;;
37655;SDS011;23498;50.958;3.124;2022-11-20T05:24:08;70.70;;;27.42;;
37655;SDS011;23498;50.958;3.124;2022-11-20T05:26:34;69.40;;;27.80;;
37655;SDS011;23498;50.958;3.124;2022-11-20T05:29:00;74.10;;;27.50;;
37655;SDS011;23498;50.958;3.124;2022-11-20T05:31:26;73.50;;;27.95;;
37655;SDS011;23498;50.958;3.124;2022-11-20T05:33:52;71.18;;;26.33;;
37655;SDS011;23498;50.958;3.124;2022-11-20T05:36:18;72.55;;;27.13;;
37655;SDS011;23498;50.958;3.124;2022-11-20T05:38:44;67.72;;;24.17;;
37655;SDS011;23498;50.958;3.124;2022-11-20T05:41:14;67.10;;;25.92;;
37655;SDS011;23498;50.958;3.124;2022-11-20T05:43:41;65.45;;;24.88;;
37655;SDS011;23498;50.958;3.124;2022-11-20T05:46:08;60.88;;;24.42;;
37655;SDS011;23498;50.958;3.124;2022-11-20T05:48:34;65.90;;;25.17;;
37655;SDS011;23498;50.958;3.124;2022-11-20T05:51:02;64.15;;;24.13;;
37655;SDS011;23498;50.958;3.124;2022-11-20T05:53:28;64.47;;;24.40;;
37655;SDS011;23498;50.958;3.124;2022-11-20T05:58:23;59.33;;;24.52;;
37655;SDS011;23498;50.958;3.124;2022-11-20T06:00:49;59.45;;;23.95;;
37655;SDS011;23498;50.958;3.124;2022-11-20T06:03:15;59.88;;;23.63;;
37655;SDS011;23498;50.958;3.124;2022-11-20T06:05:41;58.78;;;22.42;;
37655;SDS011;23498;50.958;3.124;2022-11-20T06:08:07;55.22;;;22.60;;
37655;SDS011;23498;50.958;3.124;2022-11-20T06:10:33;51.42;;;22.27;;
37655;SDS011;23498;50.958;3.124;2022-11-20T06:12:59;56.95;;;21.48;;
37655;SDS011;23498;50.958;3.124;2022-11-20T06:15:25;55.95;;;23.10;;
37655;SDS011;23498;50.958;3.124;2022-11-20T06:17:52;57.17;;;22.63;;
37655;SDS011;23498;50.958;3.124;2022-11-20T06:20:18;54.92;;;22.45;;
37655;SDS011;23498;50.958;3.124;2022-11-20T06:22:44;52.35;;;21.75;;
37655;SDS011;23498;50.958;3.124;2022-11-20T06:25:10;54.47;;;21.92;;
37655;SDS011;23498;50.958;3.124;2022-11-20T06:27:36;53.75;;;22.40;;
37655;SDS011;23498;50.958;3.124;2022-11-20T06:30:03;52.00;;;22.50;;
37655;SDS011;23498;50.958;3.124;2022-11-20T06:32:29;48.53;;;21.15;;
37655;SDS011;23498;50.958;3.124;2022-11-20T06:34:55;53.97;;;21.50;;
37655;SDS011;23498;50.958;3.124;2022-11-20T06:37:21;54.65;;;23.17;;
37655;SDS011;23498;50.958;3.124;2022-11-20T06:39:48;56.10;;;21.48;;
37655;SDS011;23498;50.958;3.124;2022-11-20T06:42:14;57.58;;;22.98;;
37655;SDS011;23498;50.958;3.124;2022-11-20T06:44:40;52.83;;;22.73;;
37655;SDS011;23498;50.958;3.124;2022-11-20T06:47:06;51.80;;;21.05;;
37655;SDS011;23498;50.958;3.124;2022-11-20T06:49:32;55.67;;;22.30;;
37655;SDS011;23498;50.958;3.124;2022-11-20T06:51:59;52.45;;;21.55;;
37655;SDS011;23498;50.958;3.124;2022-11-20T06:54:25;50.90;;;20.95;;
37655;SDS011;23498;50.958;3.124;2022-11-20T06:56:51;48.92;;;22.15;;
37655;SDS011;23498;50.958;3.124;2022-11-20T06:59:17;48.63;;;20.85;;
37655;SDS011;23498;50.958;3.124;2022-11-20T07:01:43;48.92;;;20.90;;
37655;SDS011;23498;50.958;3.124;2022-11-20T07:04:09;49.08;;;20.52;;
37655;SDS011;23498;50.958;3.124;2022-11-20T07:06:35;50.90;;;21.38;;
37655;SDS011;23498;50.958;3.124;2022-11-20T07:09:01;48.55;;;20.98;;
37655;SDS011;23498;50.958;3.124;2022-11-20T07:11:27;52.13;;;21.17;;
37655;SDS011;23498;50.958;3.124;2022-11-20T07:13:53;50.25;;;21.20;;
37655;SDS011;23498;50.958;3.124;2022-11-20T07:16:19;51.85;;;22.50;;
37655;SDS011;23498;50.958;3.124;2022-11-20T07:18:45;50.85;;;21.73;;
37655;SDS011;23498;50.958;3.124;2022-11-20T07:21:11;46.35;;;20.33;;
37655;SDS011;23498;50.958;3.124;2022-11-20T07:23:37;50.80;;;20.55;;
37655;SDS011;23498;50.958;3.124;2022-11-20T07:26:04;51.13;;;20.92;;
37655;SDS011;23498;50.958;3.124;2022-11-20T07:28:30;52.00;;;21.98;;
37655;SDS011;23498;50.958;3.124;2022-11-20T07:30:56;56.70;;;23.75;;
37655;SDS011;23498;50.958;3.124;2022-11-20T07:33:22;54.70;;;20.42;;
37655;SDS011;23498;50.958;3.124;2022-11-20T07:35:48;50.17;;;19.88;;
37655;SDS011;23498;50.958;3.124;2022-11-20T07:38:14;50.25;;;22.45;;
37655;SDS011;23498;50.958;3.124;2022-11-20T07:40:40;52.38;;;22.98;;
37655;SDS011;23498;50.958;3.124;2022-11-20T07:43:06;50.53;;;21.40;;
37655;SDS011;23498;50.958;3.124;2022-11-20T07:45:32;54.70;;;22.08;;
37655;SDS011;23498;50.958;3.124;2022-11-20T07:47:58;47.95;;;21.25;;
37655;SDS011;23498;50.958;3.124;2022-11-20T07:50:24;52.25;;;21.98;;
37655;SDS011;23498;50.958;3.124;2022-11-20T07:52:50;53.85;;;22.92;;
37655;SDS011;23498;50.958;3.124;2022-11-20T07:55:17;52.53;;;21.95;;
37655;SDS011;23498;50.958;3.124;2022-11-20T07:57:43;50.10;;;20.85;;
37655;SDS011;23498;50.958;3.124;2022-11-20T08:00:10;49.20;;;21.30;;
37655;SDS011;23498;50.958;3.124;2022-11-20T08:02:37;56.13;;;29.70;;
37655;SDS011;23498;50.958;3.124;2022-11-20T08:05:04;47.50;;;21.92;;
37655;SDS011;23498;50.958;3.124;2022-11-20T08:07:35;58.38;;;26.90;;
37655;SDS011;23498;50.958;3.124;2022-11-20T08:10:01;54.22;;;23.90;;
37655;SDS011;23498;50.958;3.124;2022-11-20T08:12:27;42.45;;;20.73;;
37655;SDS011;23498;50.958;3.124;2022-11-20T08:15:12;45.55;;;20.02;;
37655;SDS011;23498;50.958;3.124;2022-11-20T08:17:38;48.60;;;23.98;;
37655;SDS011;23498;50.958;3.124;2022-11-20T08:20:09;47.63;;;22.50;;
37655;SDS011;23498;50.958;3.124;2022-11-20T08:22:35;49.13;;;23.25;;
37655;SDS011;23498;50.958;3.124;2022-11-20T08:25:08;44.80;;;22.10;;
37655;SDS011;23498;50.958;3.124;2022-11-20T08:28:07;48.28;;;21.80;;
37655;SDS011;23498;50.958;3.124;2022-11-20T08:30:57;40.35;;;20.13;;
37655;SDS011;23498;50.958;3.124;2022-11-20T08:33:43;38.63;;;19.85;;
37655;SDS011;23498;50.958;3.124;2022-11-20T08:36:46;36.83;;;18.50;;
37655;SDS011;23498;50.958;3.124;2022-11-20T08:39:39;40.45;;;18.73;;
37655;SDS011;23498;50.958;3.124;2022-11-20T08:42:08;42.00;;;18.20;;
37655;SDS011;23498;50.958;3.124;2022-11-20T08:44:35;36.17;;;18.67;;
37655;SDS011;23498;50.958;3.124;2022-11-20T08:47:01;35.55;;;18.27;;
37655;SDS011;23498;50.958;3.124;2022-11-20T08:49:31;39.17;;;18.45;;
37655;SDS011;23498;50.958;3.124;2022-11-20T08:51:58;38.45;;;20.48;;
37655;SDS011;23498;50.958;3.124;2022-11-20T08:54:24;37.63;;;19.40;;
37655;SDS011;23498;50.958;3.124;2022-11-20T08:56:50;33.47;;;16.58;;
37655;SDS011;23498;50.958;3.124;2022-11-20T08:59:16;34.90;;;18.13;;
37655;SDS011;23498;50.958;3.124;2022-11-20T09:01:43;32.67;;;16.42;;
37655;SDS011;23498;50.958;3.124;2022-11-20T09:04:09;32.28;;;16.38;;
37655;SDS011;23498;50.958;3.124;2022-11-20T09:06:38;28.85;;;15.73;;
37655;SDS011;23498;50.958;3.124;2022-11-20T09:09:04;26.58;;;13.98;;
37655;SDS011;23498;50.958;3.124;2022-11-20T09:11:30;28.50;;;13.60;;
37655;SDS011;23498;50.958;3.124;2022-11-20T09:13:58;28.67;;;13.48;;
37655;SDS011;23498;50.958;3.124;2022-11-20T09:16:28;25.73;;;14.13;;
37655;SDS011;23498;50.958;3.124;2022-11-20T09:18:54;29.02;;;12.70;;
37655;SDS011;23498;50.958;3.124;2022-11-20T09:21:23;27.38;;;12.93;;
37655;SDS011;23498;50.958;3.124;2022-11-20T09:23:57;27.02;;;12.18;;
37655;SDS011;23498;50.958;3.124;2022-11-20T09:26:23;23.80;;;12.18;;
37655;SDS011;23498;50.958;3.124;2022-11-20T09:28:49;23.55;;;11.18;;
37655;SDS011;23498;50.958;3.124;2022-11-20T09:31:18;21.83;;;11.10;;
37655;SDS011;23498;50.958;3.124;2022-11-20T09:33:54;22.83;;;12.90;;
37655;SDS011;23498;50.958;3.124;2022-11-20T09:36:43;19.77;;;11.32;;
37655;SDS011;23498;50.958;3.124;2022-11-20T09:39:11;20.30;;;11.60;;
37655;SDS011;23498;50.958;3.124;2022-11-20T09:46:53;12.75;;;6.32;;
37655;SDS011;23498;50.958;3.124;2022-11-20T09:54:44;14.68;;;4.63;;
37655;SDS011;23498;50.958;3.124;2022-11-20T10:09:30;10.20;;;3.75;;
37655;SDS011;23498;50.958;3.124;2022-11-20T10:18:42;8.20;;;3.80;;
37655;SDS011;23498;50.958;3.124;2022-11-20T12:14:20;8.77;;;6.00;;
37655;SDS011;23498;50.958;3.124;2022-11-20T12:16:49;9.60;;;6.05;;
37655;SDS011;23498;50.958;3.124;2022-11-20T12:19:20;8.70;;;5.90;;
37655;SDS011;23498;50.958;3.124;2022-11-20T12:41:43;7.25;;;4.97;;
37655;SDS011;23498;50.958;3.124;2022-11-20T13:08:48;6.80;;;3.97;;
37655;SDS011;23498;50.958;3.124;2022-11-20T13:14:11;5.68;;;3.88;;
37655;SDS011;23498;50.958;3.124;2022-11-20T13:22:26;5.80;;;3.67;;
37655;SDS011;23498;50.958;3.124;2022-11-20T13:25:09;7.03;;;4.00;;
37655;SDS011;23498;50.958;3.124;2022-11-20T13:27:46;7.43;;;4.75;;
37655;SDS011;23498;50.958;3.124;2022-11-20T13:30:17;6.68;;;4.53;;
37655;SDS011;23498;50.958;3.124;2022-11-20T13:33:21;6.78;;;4.20;;
37655;SDS011;23498;50.958;3.124;2022-11-20T13:36:19;5.40;;;3.92;;
37655;SDS011;23498;50.958;3.124;2022-11-20T13:38:59;7.28;;;4.03;;
37655;SDS011;23498;50.958;3.124;2022-11-20T13:44:38;9.60;;;4.70;;
37655;SDS011;23498;50.958;3.124;2022-11-20T13:50:13;7.00;;;4.10;;
37655;SDS011;23498;50.958;3.124;2022-11-20T13:56:21;7.88;;;4.05;;
37655;SDS011;23498;50.958;3.124;2022-11-20T14:02:25;8.25;;;4.10;;
37655;SDS011;23498;50.958;3.124;2022-11-20T14:05:26;11.40;;;6.93;;
37655;SDS011;23498;50.958;3.124;2022-11-20T14:07:59;7.30;;;3.75;;
37655;SDS011;23498;50.958;3.124;2022-11-20T14:10:28;10.32;;;4.18;;
37655;SDS011;23498;50.958;3.124;2022-11-20T14:16:05;7.45;;;2.08;;
37655;SDS011;23498;50.958;3.124;2022-11-20T14:18:31;7.72;;;2.40;;
37655;SDS011;23498;50.958;3.124;2022-11-20T14:21:07;12.45;;;3.65;;
37655;SDS011;23498;50.958;3.124;2022-11-20T14:26:52;11.07;;;3.70;;
37655;SDS011;23498;50.958;3.124;2022-11-20T14:29:33;6.85;;;2.55;;
37655;SDS011;23498;50.958;3.124;2022-11-20T14:31:59;9.98;;;2.75;;
37655;SDS011;23498;50.958;3.124;2022-11-20T14:34:27;11.55;;;2.35;;
37655;SDS011;23498;50.958;3.124;2022-11-20T14:37:02;7.07;;;2.50;;
37655;SDS011;23498;50.958;3.124;2022-11-20T14:39:32;12.88;;;4.13;;
37655;SDS011;23498;50.958;3.124;2022-11-20T14:41:59;11.57;;;3.22;;
37655;SDS011;23498;50.958;3.124;2022-11-20T14:44:26;9.85;;;2.92;;
37655;SDS011;23498;50.958;3.124;2022-11-20T14:46:53;10.55;;;3.40;;
37655;SDS011;23498;50.958;3.124;2022-11-20T14:49:20;15.23;;;3.17;;
37655;SDS011;23498;50.958;3.124;2022-11-20T14:51:46;11.38;;;2.20;;
37655;SDS011;23498;50.958;3.124;2022-11-20T14:54:16;10.57;;;3.45;;
37655;SDS011;23498;50.958;3.124;2022-11-20T14:56:55;12.73;;;2.58;;
37655;SDS011;23498;50.958;3.124;2022-11-20T14:59:22;12.02;;;2.60;;
37655;SDS011;23498;50.958;3.124;2022-11-20T15:02:22;12.32;;;2.78;;
37655;SDS011;23498;50.958;3.124;2022-11-20T15:04:56;11.18;;;2.47;;
37655;SDS011;23498;50.958;3.124;2022-11-20T15:07:28;11.68;;;2.75;;
37655;SDS011;23498;50.958;3.124;2022-11-20T15:12:37;12.02;;;3.08;;
37655;SDS011;23498;50.958;3.124;2022-11-20T15:21:50;13.48;;;3.28;;
37655;SDS011;23498;50.958;3.124;2022-11-20T15:28:09;13.52;;;2.53;;
37655;SDS011;23498;50.958;3.124;2022-11-20T15:31:00;9.88;;;2.42;;
37655;SDS011;23498;50.958;3.124;2022-11-20T15:34:08;12.68;;;3.13;;
37655;SDS011;23498;50.958;3.124;2022-11-20T15:37:00;12.63;;;3.00;;
37655;SDS011;23498;50.958;3.124;2022-11-20T15:52:08;13.77;;;4.07;;
37655;SDS011;23498;50.958;3.124;2022-11-20T15:57:59;19.05;;;3.38;;
37655;SDS011;23498;50.958;3.124;2022-11-20T16:00:41;12.80;;;3.95;;
37655;SDS011;23498;50.958;3.124;2022-11-20T16:03:32;15.30;;;4.28;;
37655;SDS011;23498;50.958;3.124;2022-11-20T16:09:35;14.93;;;5.60;;
37655;SDS011;23498;50.958;3.124;2022-11-20T16:18:22;12.38;;;3.97;;
37655;SDS011;23498;50.958;3.124;2022-11-20T16:21:10;19.73;;;4.07;;
37655;SDS011;23498;50.958;3.124;2022-11-20T16:23:38;13.35;;;4.10;;
37655;SDS011;23498;50.958;3.124;2022-11-20T16:26:11;14.73;;;4.13;;
37655;SDS011;23498;50.958;3.124;2022-11-20T16:28:37;17.20;;;4.30;;
37655;SDS011;23498;50.958;3.124;2022-11-20T16:31:13;13.32;;;4.00;;
37655;SDS011;23498;50.958;3.124;2022-11-20T16:33:39;16.60;;;4.50;;
37655;SDS011;23498;50.958;3.124;2022-11-20T16:36:09;18.77;;;4.18;;
37655;SDS011;23498;50.958;3.124;2022-11-20T16:38:35;17.40;;;4.10;;
37655;SDS011;23498;50.958;3.124;2022-11-20T16:41:02;15.45;;;4.85;;
37655;SDS011;23498;50.958;3.124;2022-11-20T16:43:28;16.00;;;4.53;;
37655;SDS011;23498;50.958;3.124;2022-11-20T16:45:54;16.92;;;4.47;;
37655;SDS011;23498;50.958;3.124;2022-11-20T16:48:20;12.90;;;4.25;;
37655;SDS011;23498;50.958;3.124;2022-11-20T16:50:47;17.67;;;4.60;;
37655;SDS011;23498;50.958;3.124;2022-11-20T16:53:13;15.23;;;4.93;;
37655;SDS011;23498;50.958;3.124;2022-11-20T16:55:39;15.38;;;4.40;;
37655;SDS011;23498;50.958;3.124;2022-11-20T16:58:05;17.88;;;4.97;;
37655;SDS011;23498;50.958;3.124;2022-11-20T17:00:35;17.95;;;7.15;;
37655;SDS011;23498;50.958;3.124;2022-11-20T17:03:01;19.95;;;7.07;;
37655;SDS011;23498;50.958;3.124;2022-11-20T17:05:28;17.98;;;6.70;;
37655;SDS011;23498;50.958;3.124;2022-11-20T17:07:54;17.92;;;6.30;;
37655;SDS011;23498;50.958;3.124;2022-11-20T17:10:20;17.45;;;5.95;;
37655;SDS011;23498;50.958;3.124;2022-11-20T17:12:58;17.38;;;7.25;;
37655;SDS011;23498;50.958;3.124;2022-11-20T17:15:26;23.08;;;7.95;;
37655;SDS011;23498;50.958;3.124;2022-11-20T17:23:43;14.77;;;5.88;;
37655;SDS011;23498;50.958;3.124;2022-11-20T17:26:13;20.00;;;5.75;;
37655;SDS011;23498;50.958;3.124;2022-11-20T17:28:44;18.98;;;5.55;;
37655;SDS011;23498;50.958;3.124;2022-11-20T17:31:12;14.10;;;5.00;;
37655;SDS011;23498;50.958;3.124;2022-11-20T17:33:39;24.52;;;6.03;;
37655;SDS011;23498;50.958;3.124;2022-11-20T17:36:06;18.63;;;5.18;;
37655;SDS011;23498;50.958;3.124;2022-11-20T17:38:32;17.25;;;5.40;;
37655;SDS011;23498;50.958;3.124;2022-11-20T17:41:05;17.50;;;5.75;;
37655;SDS011;23498;50.958;3.124;2022-11-20T17:43:31;17.92;;;6.53;;
37655;SDS011;23498;50.958;3.124;2022-11-20T17:45:57;17.30;;;5.65;;
37655;SDS011;23498;50.958;3.124;2022-11-20T17:48:23;17.23;;;5.25;;
37655;SDS011;23498;50.958;3.124;2022-11-20T17:50:50;24.30;;;7.88;;
37655;SDS011;23498;50.958;3.124;2022-11-20T17:53:16;16.35;;;5.45;;
37655;SDS011;23498;50.958;3.124;2022-11-20T17:55:42;16.45;;;5.20;;
37655;SDS011;23498;50.958;3.124;2022-11-20T17:58:27;15.93;;;4.68;;
37655;SDS011;23498;50.958;3.124;2022-11-20T18:00:53;13.65;;;4.85;;
37655;SDS011;23498;50.958;3.124;2022-11-20T18:03:19;18.38;;;5.57;;
37655;SDS011;23498;50.958;3.124;2022-11-20T18:05:45;14.20;;;5.72;;
37655;SDS011;23498;50.958;3.124;2022-11-20T18:08:11;13.27;;;4.97;;
37655;SDS011;23498;50.958;3.124;2022-11-20T18:10:37;14.52;;;4.50;;
37655;SDS011;23498;50.958;3.124;2022-11-20T18:13:03;16.70;;;6.25;;
37655;SDS011;23498;50.958;3.124;2022-11-20T18:15:29;18.35;;;5.93;;
37655;SDS011;23498;50.958;3.124;2022-11-20T18:18:01;17.67;;;4.80;;
37655;SDS011;23498;50.958;3.124;2022-11-20T18:23:57;20.92;;;6.68;;
37655;SDS011;23498;50.958;3.124;2022-11-20T18:26:23;17.33;;;5.70;;
37655;SDS011;23498;50.958;3.124;2022-11-20T18:28:49;14.80;;;7.25;;
37655;SDS011;23498;50.958;3.124;2022-11-20T18:31:16;14.27;;;6.22;;
37655;SDS011;23498;50.958;3.124;2022-11-20T18:33:42;13.75;;;4.95;;
37655;SDS011;23498;50.958;3.124;2022-11-20T18:36:18;13.70;;;4.88;;
37655;SDS011;23498;50.958;3.124;2022-11-20T18:38:46;16.48;;;4.47;;
37655;SDS011;23498;50.958;3.124;2022-11-20T18:41:13;15.45;;;4.65;;
37655;SDS011;23498;50.958;3.124;2022-11-20T18:43:59;15.40;;;5.18;;
37655;SDS011;23498;50.958;3.124;2022-11-20T18:46:44;18.88;;;5.55;;
37655;SDS011;23498;50.958;3.124;2022-11-20T18:49:10;17.83;;;4.75;;
37655;SDS011;23498;50.958;3.124;2022-11-20T18:51:37;14.82;;;5.15;;
37655;SDS011;23498;50.958;3.124;2022-11-20T18:54:03;19.63;;;5.30;;
37655;SDS011;23498;50.958;3.124;2022-11-20T18:56:30;37.00;;;16.65;;
37655;SDS011;23498;50.958;3.124;2022-11-20T18:59:00;30.08;;;12.38;;
37655;SDS011;23498;50.958;3.124;2022-11-20T19:01:26;31.13;;;12.52;;
37655;SDS011;23498;50.958;3.124;2022-11-20T19:03:52;22.65;;;7.95;;
37655;SDS011;23498;50.958;3.124;2022-11-20T19:06:18;14.90;;;5.70;;
37655;SDS011;23498;50.958;3.124;2022-11-20T19:08:44;19.90;;;5.82;;
37655;SDS011;23498;50.958;3.124;2022-11-20T19:11:13;13.80;;;5.28;;
37655;SDS011;23498;50.958;3.124;2022-11-20T19:13:39;19.00;;;5.47;;